createdAt,value
2022-09-22T00:01:20.624Z,6.55
2022-09-22T00:04:23.242Z,6.13
2022-09-22T00:07:25.945Z,7.37
2022-09-22T00:10:29.068Z,5.60
2022-09-22T00:13:33.728Z,6.88
2022-09-22T00:16:39.858Z,6.10
2022-09-22T00:19:42.581Z,6.43
2022-09-22T00:22:45.239Z,6.33
2022-09-22T00:25:48.299Z,6.00
2022-09-22T00:28:53.257Z,6.07
2022-09-22T00:31:56.708Z,6.43
2022-09-22T00:34:59.306Z,5.50
2022-09-22T00:38:01.986Z,5.90
2022-09-22T00:41:05.789Z,6.43
2022-09-22T00:44:39.498Z,6.07
2022-09-22T00:47:45.608Z,7.25
2022-09-22T00:50:49.614Z,6.10
2022-09-22T00:53:54.063Z,7.33
2022-09-22T00:57:05.306Z,5.57
2022-09-22T01:00:12.315Z,7.35
2022-09-22T01:03:19.140Z,7.13
2022-09-22T01:06:26.853Z,6.47
2022-09-22T01:09:33.108Z,6.13
2022-09-22T01:12:37.921Z,5.80
2022-09-22T01:15:50.178Z,6.25
2022-09-22T01:19:09.154Z,5.65
2022-09-22T01:22:29.276Z,7.13
2022-09-22T01:25:59.978Z,6.63
2022-09-22T01:29:24.127Z,4.97
2022-09-22T01:32:31.429Z,5.95
2022-09-22T01:35:43.654Z,5.50
2022-09-22T01:38:55.360Z,6.05
2022-09-22T01:42:02.615Z,5.70
2022-09-22T01:45:09.807Z,5.87
2022-09-22T01:48:19.068Z,6.22
2022-09-22T01:51:27.182Z,6.20
2022-09-22T01:54:34.234Z,5.90
2022-09-22T01:57:44.570Z,6.30
2022-09-22T02:00:53.522Z,5.53
2022-09-22T02:04:03.693Z,6.13
2022-09-22T02:07:09.841Z,6.78
2022-09-22T02:10:17.017Z,6.68
2022-09-22T02:13:20.119Z,6.30
2022-09-22T02:16:24.818Z,6.53
2022-09-22T02:19:34.131Z,6.65
2022-09-22T02:22:36.748Z,5.88
2022-09-22T02:25:41.713Z,6.00
2022-09-22T02:28:45.640Z,6.67
2022-09-22T02:31:50.412Z,6.37
2022-09-22T02:34:55.344Z,6.13
2022-09-22T02:38:05.871Z,5.95
2022-09-22T02:41:15.103Z,6.90
2022-09-22T02:44:22.600Z,5.50
2022-09-22T02:47:30.159Z,6.53
2022-09-22T02:50:35.549Z,6.05
2022-09-22T02:53:38.107Z,6.25
2022-09-22T02:56:40.829Z,6.10
2022-09-22T02:59:43.394Z,5.97
2022-09-22T03:02:46.104Z,5.33
2022-09-22T03:05:50.023Z,6.57
2022-09-22T03:08:53.661Z,5.57
2022-09-22T03:11:56.269Z,5.93
2022-09-22T03:14:58.971Z,7.50
2022-09-22T03:18:01.548Z,5.77
2022-09-22T03:21:05.985Z,5.88
2022-09-22T03:24:08.899Z,5.63
2022-09-22T03:27:11.583Z,6.47
2022-09-22T03:30:14.632Z,6.05
2022-09-22T03:33:17.279Z,6.25
2022-09-22T03:36:21.681Z,6.07
2022-09-22T03:39:24.258Z,4.97
2022-09-22T03:42:27.014Z,5.00
2022-09-22T03:45:29.590Z,6.75
2022-09-22T03:48:32.818Z,5.78
2022-09-22T03:51:39.380Z,7.40
2022-09-22T03:54:41.989Z,6.70
2022-09-22T03:57:44.716Z,6.88
2022-09-22T04:00:49.389Z,6.95
2022-09-22T04:03:52.105Z,7.43
2022-09-22T04:06:56.096Z,6.32
2022-09-22T04:09:58.920Z,7.13
2022-09-22T04:13:01.519Z,6.35
2022-09-22T04:16:04.184Z,5.55
2022-09-22T04:19:06.778Z,5.90
2022-09-22T04:22:10.698Z,6.25
2022-09-22T04:25:13.303Z,6.23
2022-09-22T04:28:15.862Z,5.97
2022-09-22T04:31:19.786Z,6.05
2022-09-22T04:34:22.452Z,7.53
2022-09-22T04:37:26.699Z,6.05
2022-09-22T04:40:30.197Z,6.60
2022-09-22T04:43:32.870Z,5.97
2022-09-22T04:46:35.640Z,6.68
2022-09-22T04:49:38.205Z,8.23
2022-09-22T04:52:46.463Z,7.13
2022-09-22T04:55:50.521Z,6.30
2022-09-22T04:58:53.196Z,5.47
2022-09-22T05:01:55.786Z,7.07
2022-09-22T05:04:58.492Z,6.60
2022-09-22T05:08:02.824Z,7.55
2022-09-22T05:11:08.242Z,6.60
2022-09-22T05:14:10.913Z,6.30
2022-09-22T05:17:14.031Z,5.97
2022-09-22T05:20:17.667Z,6.50
2022-09-22T05:23:21.569Z,6.75
2022-09-22T05:26:24.806Z,6.95
2022-09-22T05:29:28.243Z,6.40
2022-09-22T05:32:30.842Z,7.35
2022-09-22T05:35:36.820Z,6.85
2022-09-22T05:38:41.146Z,7.03
2022-09-22T05:41:43.727Z,8.05
2022-09-22T05:44:46.514Z,7.10
2022-09-22T05:47:49.450Z,7.63
2022-09-22T05:50:52.048Z,5.95
2022-09-22T05:53:56.490Z,7.13
2022-09-22T05:56:59.166Z,8.20
2022-09-22T06:00:02.423Z,6.93
2022-09-22T06:03:05.269Z,11.23
2022-09-22T06:06:07.964Z,8.65
2022-09-22T06:09:11.916Z,8.85
2022-09-22T06:12:14.499Z,9.40
2022-09-22T06:15:17.372Z,8.93
2022-09-22T06:18:24.421Z,9.93
2022-09-22T06:21:27.573Z,9.13
2022-09-22T06:24:31.546Z,8.30
2022-09-22T06:27:34.114Z,8.77
2022-09-22T06:30:40.221Z,9.47
2022-09-22T06:33:47.114Z,8.02
2022-09-22T06:36:50.082Z,13.93
2022-09-22T06:39:56.182Z,13.45
2022-09-22T06:42:59.711Z,14.20
2022-09-22T06:46:02.859Z,15.10
2022-09-22T06:49:05.835Z,12.98
2022-09-22T06:52:11.362Z,12.20
2022-09-22T06:55:19.342Z,10.05
2022-09-22T06:58:22.877Z,9.20
2022-09-22T07:01:27.505Z,11.20
2022-09-22T07:04:30.140Z,9.15
2022-09-22T07:07:35.315Z,9.55
2022-09-22T07:10:39.230Z,10.15
2022-09-22T07:13:43.818Z,7.88
2022-09-22T07:16:46.671Z,9.80
2022-09-22T07:19:51.392Z,7.70
2022-09-22T07:23:00.854Z,8.32
2022-09-22T07:26:05.921Z,5.63
2022-09-22T07:29:13.215Z,7.10
2022-09-22T07:32:15.989Z,6.50
2022-09-22T07:35:18.762Z,7.63
2022-09-22T07:38:21.552Z,6.20
2022-09-22T07:41:28.340Z,5.45
2022-09-22T07:44:48.641Z,5.72
2022-09-22T07:48:08.981Z,3.97
2022-09-22T07:51:18.336Z,4.43
2022-09-22T07:54:20.930Z,4.38
2022-09-22T07:57:25.040Z,5.65
2022-09-22T08:00:32.949Z,4.28
2022-09-22T08:03:36.197Z,4.03
2022-09-22T08:06:39.275Z,4.28
2022-09-22T08:09:41.901Z,10.57
2022-09-22T08:12:46.395Z,15.63
2022-09-22T08:15:56.086Z,15.05
2022-09-22T08:19:00.291Z,11.77
2022-09-22T08:22:03.533Z,8.60
2022-09-22T08:25:07.378Z,6.38
2022-09-22T08:28:12.472Z,10.77
2022-09-22T08:31:17.871Z,7.90
2022-09-22T08:34:22.566Z,4.57
2022-09-22T08:37:28.298Z,11.95
2022-09-22T08:40:31.455Z,5.10
2022-09-22T08:43:35.943Z,3.50
2022-09-22T08:46:44.107Z,6.93
2022-09-22T08:50:08.434Z,7.83
2022-09-22T08:53:16.055Z,4.85
2022-09-22T08:56:30.712Z,4.30
2022-09-22T08:59:39.677Z,15.57
2022-09-22T09:02:45.729Z,5.75
2022-09-22T09:06:00.428Z,4.13
2022-09-22T09:09:28.563Z,5.25
2022-09-22T09:12:44.402Z,6.53
2022-09-22T09:16:03.115Z,5.15
2022-09-22T09:19:12.690Z,3.72
2022-09-22T09:22:24.882Z,4.23
2022-09-22T09:25:35.999Z,3.92
2022-09-22T09:28:42.907Z,7.32
2022-09-22T09:31:52.515Z,7.22
2022-09-22T09:34:55.926Z,20.42
2022-09-22T09:38:01.342Z,9.07
2022-09-22T09:41:14.549Z,5.50
2022-09-22T09:44:21.169Z,3.88
2022-09-22T09:47:44.019Z,3.35
2022-09-22T09:50:46.755Z,3.90
2022-09-22T09:53:52.047Z,2.55
2022-09-22T09:57:10.291Z,3.20
2022-09-22T10:00:34.592Z,2.75
2022-09-22T10:03:46.850Z,2.25
2022-09-22T10:06:50.209Z,2.40
2022-09-22T10:09:54.726Z,2.90
2022-09-22T10:13:20.995Z,3.87
2022-09-22T10:16:24.657Z,2.15
2022-09-22T10:19:34.551Z,1.48
2022-09-22T10:22:39.745Z,4.15
2022-09-22T10:25:43.092Z,2.03
2022-09-22T10:28:51.014Z,2.00
2022-09-22T10:32:05.711Z,4.50
2022-09-22T10:35:28.019Z,1.90
2022-09-22T10:38:34.946Z,2.58
2022-09-22T10:41:39.346Z,1.80
2022-09-22T10:44:48.188Z,2.53
2022-09-22T10:47:57.998Z,1.95
2022-09-22T10:51:10.619Z,1.90
2022-09-22T10:54:35.987Z,1.83
2022-09-22T10:58:02.088Z,1.93
2022-09-22T11:01:22.194Z,2.10
2022-09-22T11:04:42.859Z,1.98
2022-09-22T11:08:19.665Z,0.80
2022-09-22T11:11:45.751Z,1.00
2022-09-22T11:15:18.371Z,2.43
2022-09-22T11:18:43.075Z,2.20
2022-09-22T11:21:57.304Z,1.33
2022-09-22T11:25:15.654Z,1.00
2022-09-22T11:28:34.851Z,2.60
2022-09-22T11:31:48.684Z,1.43
2022-09-22T11:35:15.305Z,1.00
2022-09-22T11:38:45.731Z,1.17
2022-09-22T11:42:02.570Z,1.00
2022-09-22T11:45:16.903Z,0.80
2022-09-22T11:48:35.617Z,5.40
2022-09-22T11:51:57.640Z,6.07
2022-09-22T11:55:15.939Z,2.20
2022-09-22T11:58:28.993Z,1.35
2022-09-22T12:01:38.050Z,5.30
2022-09-22T12:04:45.669Z,1.93
2022-09-22T12:07:55.667Z,2.57
2022-09-22T12:10:59.129Z,1.88
2022-09-22T12:14:23.467Z,1.55
2022-09-22T12:17:42.179Z,3.00
2022-09-22T12:20:55.307Z,2.17
2022-09-22T12:24:01.934Z,1.60
2022-09-22T12:27:12.270Z,1.67
2022-09-22T12:30:22.715Z,1.30
2022-09-22T12:33:27.318Z,1.90
2022-09-22T12:36:32.797Z,1.53
2022-09-22T12:39:41.873Z,1.80
2022-09-22T12:42:49.488Z,2.22
2022-09-22T12:45:55.959Z,2.20
2022-09-22T12:48:58.836Z,1.23
2022-09-22T12:52:01.640Z,2.90
2022-09-22T12:55:17.811Z,1.53
2022-09-22T12:58:40.343Z,1.20
2022-09-22T13:01:46.222Z,1.67
2022-09-22T13:05:23.736Z,2.13
2022-09-22T13:08:47.087Z,5.20
2022-09-22T13:12:25.468Z,1.60
2022-09-22T13:15:28.986Z,1.90
2022-09-22T13:18:38.174Z,0.93
2022-09-22T13:21:42.067Z,2.20
2022-09-22T13:24:44.969Z,2.27
2022-09-22T13:27:47.752Z,1.40
2022-09-22T13:31:03.438Z,1.00
2022-09-22T13:34:29.362Z,1.83
2022-09-22T13:37:32.353Z,2.38
2022-09-22T13:40:35.540Z,1.87
2022-09-22T13:43:40.668Z,1.23
2022-09-22T13:46:46.399Z,1.35
2022-09-22T13:49:54.053Z,1.60
2022-09-22T13:52:57.314Z,1.85
2022-09-22T13:56:01.175Z,1.83
2022-09-22T13:59:04.777Z,1.60
2022-09-22T14:02:10.822Z,2.42
2022-09-22T14:05:21.683Z,1.17
2022-09-22T14:08:28.939Z,1.45
2022-09-22T14:11:33.246Z,1.27
2022-09-22T14:14:35.972Z,2.23
2022-09-22T14:17:41.815Z,2.00
2022-09-22T14:20:46.580Z,3.88
2022-09-22T14:23:52.549Z,2.45
2022-09-22T14:27:03.795Z,2.00
2022-09-22T14:30:15.790Z,1.40
2022-09-22T14:33:23.330Z,4.18
2022-09-22T14:36:27.522Z,2.47
2022-09-22T14:39:34.166Z,2.28
2022-09-22T14:42:37.159Z,1.57
2022-09-22T14:45:57.635Z,1.70
2022-09-22T14:49:04.395Z,2.22
2022-09-22T14:52:16.120Z,3.45
2022-09-22T14:55:29.792Z,1.73
2022-09-22T14:58:40.261Z,2.70
2022-09-22T15:02:06.819Z,2.13
2022-09-22T15:05:11.771Z,3.33
2022-09-22T15:08:18.876Z,3.40
2022-09-22T15:11:21.486Z,2.65
2022-09-22T15:14:41.278Z,2.53
2022-09-22T15:18:02.734Z,3.13
2022-09-22T15:21:11.925Z,2.38
2022-09-22T15:24:21.121Z,2.92
2022-09-22T15:27:23.892Z,2.78
2022-09-22T15:30:26.957Z,1.80
2022-09-22T15:33:29.655Z,2.40
2022-09-22T15:36:33.839Z,2.33
2022-09-22T15:39:37.770Z,3.42
2022-09-22T15:43:02.286Z,1.52
2022-09-22T15:46:08.806Z,2.93
2022-09-22T15:49:15.121Z,2.43
2022-09-22T15:52:17.732Z,2.08
2022-09-22T15:55:24.167Z,2.10
2022-09-22T15:58:31.676Z,1.63
2022-09-22T16:01:34.540Z,1.70
2022-09-22T16:04:37.592Z,1.80
2022-09-22T16:07:42.170Z,2.13
2022-09-22T16:10:46.505Z,1.38
2022-09-22T16:13:49.154Z,1.83
2022-09-22T16:16:52.259Z,1.23
2022-09-22T16:19:55.035Z,2.23
2022-09-22T16:23:00.297Z,1.45
2022-09-22T16:26:06.691Z,3.15
2022-09-22T16:29:09.886Z,1.83
2022-09-22T16:32:12.585Z,1.67
2022-09-22T16:35:15.411Z,1.83
2022-09-22T16:38:18.021Z,4.33
2022-09-22T16:41:24.694Z,8.73
2022-09-22T16:44:27.325Z,10.57
2022-09-22T16:47:30.019Z,10.75
2022-09-22T16:50:32.736Z,16.00
2022-09-22T16:53:35.583Z,18.23
2022-09-22T16:56:39.972Z,16.45
2022-09-22T16:59:43.031Z,13.60
2022-09-22T17:02:46.889Z,9.32
2022-09-22T17:05:49.465Z,7.13
2022-09-22T17:08:52.920Z,5.70
2022-09-22T17:11:57.984Z,8.52
2022-09-22T17:15:00.714Z,7.70
2022-09-22T17:18:04.296Z,10.77
2022-09-22T17:21:08.912Z,16.30
2022-09-22T17:24:11.485Z,14.50
2022-09-22T17:27:15.466Z,14.60
2022-09-22T17:30:18.253Z,11.88
2022-09-22T17:33:21.547Z,8.13
2022-09-22T17:36:26.140Z,8.30
2022-09-22T17:39:30.578Z,7.25
2022-09-22T17:42:37.659Z,7.88
2022-09-22T17:45:40.299Z,10.27
2022-09-22T17:49:00.807Z,10.20
2022-09-22T17:52:21.465Z,11.52
2022-09-22T17:55:25.445Z,11.70
2022-09-22T17:58:29.418Z,10.77
2022-09-22T18:01:32.179Z,10.18
2022-09-22T18:04:34.834Z,10.13
2022-09-22T18:07:40.357Z,9.35
2022-09-22T18:10:46.406Z,16.92
2022-09-22T18:13:50.544Z,13.73
2022-09-22T18:16:53.888Z,12.93
2022-09-22T18:19:57.501Z,13.43
2022-09-22T18:23:00.450Z,11.18
2022-09-22T18:26:03.737Z,10.85
2022-09-22T18:29:10.053Z,9.25
2022-09-22T18:32:12.608Z,9.57
2022-09-22T18:35:16.035Z,10.20
2022-09-22T18:38:19.892Z,9.95
2022-09-22T18:41:23.148Z,9.35
2022-09-22T18:44:28.255Z,8.95
2022-09-22T18:47:30.905Z,9.43
2022-09-22T18:50:34.778Z,9.40
2022-09-22T18:53:37.815Z,10.73
2022-09-22T18:56:42.214Z,15.43
2022-09-22T18:59:46.185Z,16.92
2022-09-22T19:02:49.235Z,18.38
2022-09-22T19:05:52.034Z,15.03
2022-09-22T19:08:55.616Z,13.95
2022-09-22T19:11:58.729Z,11.88
2022-09-22T19:15:05.644Z,9.80
2022-09-22T19:18:09.917Z,11.25
2022-09-22T19:21:15.508Z,8.97
2022-09-22T19:24:18.204Z,8.73
2022-09-22T19:27:22.737Z,9.80
2022-09-22T19:30:30.890Z,10.85
2022-09-22T19:33:34.332Z,10.93
2022-09-22T19:36:37.247Z,9.60
2022-09-22T19:39:39.980Z,9.27
2022-09-22T19:42:42.674Z,9.00
2022-09-22T19:45:47.063Z,9.48
2022-09-22T19:48:49.700Z,9.60
2022-09-22T19:51:53.067Z,9.80
2022-09-22T19:54:55.662Z,8.40
2022-09-22T19:57:58.335Z,9.50
2022-09-22T20:01:02.317Z,8.02
2022-09-22T20:04:06.486Z,9.18
2022-09-22T20:07:11.054Z,7.80
2022-09-22T20:10:14.414Z,7.70
2022-09-22T20:13:30.992Z,7.70
2022-09-22T20:16:35.101Z,8.20
2022-09-22T20:19:39.296Z,8.00
2022-09-22T20:22:42.331Z,8.40
2022-09-22T20:25:45.050Z,8.20
2022-09-22T20:28:47.908Z,7.47
2022-09-22T20:31:52.227Z,8.05
2022-09-22T20:34:56.339Z,8.40
2022-09-22T20:37:59.510Z,8.53
2022-09-22T20:41:02.899Z,11.32
2022-09-22T20:44:05.713Z,10.43
2022-09-22T20:47:14.868Z,9.27
2022-09-22T20:50:18.005Z,9.07
2022-09-22T20:53:20.882Z,6.70
2022-09-22T20:56:23.616Z,7.18
2022-09-22T20:59:26.484Z,7.93
2022-09-22T21:02:30.926Z,7.15
2022-09-22T21:05:34.276Z,7.22
2022-09-22T21:08:56.928Z,7.53
2022-09-22T21:11:59.782Z,7.05
2022-09-22T21:15:02.777Z,6.90
2022-09-22T21:18:06.892Z,8.18
2022-09-22T21:21:10.246Z,6.93
2022-09-22T21:24:12.964Z,6.90
2022-09-22T21:27:16.264Z,6.78
2022-09-22T21:30:19.142Z,7.18
2022-09-22T21:33:23.441Z,7.38
2022-09-22T21:36:26.570Z,6.65
2022-09-22T21:39:29.411Z,7.83
2022-09-22T21:42:32.382Z,6.43
2022-09-22T21:45:35.219Z,6.97
2022-09-22T21:48:39.587Z,9.30
2022-09-22T21:55:07.636Z,7.60
2022-09-22T21:58:10.551Z,8.30
2022-09-22T22:01:14.835Z,8.13
2022-09-22T22:04:19.115Z,8.40
2022-09-22T22:07:23.447Z,8.88
2022-09-22T22:10:26.183Z,9.73
2022-09-22T22:13:28.731Z,8.73
2022-09-22T22:16:35.418Z,8.82
2022-09-22T22:19:39.334Z,8.97
2022-09-22T22:22:42.066Z,8.82
2022-09-22T22:25:44.745Z,9.52
2022-09-22T22:28:48.345Z,10.20
2022-09-22T22:31:52.196Z,10.82
2022-09-22T22:34:56.145Z,11.17
2022-09-22T22:37:58.820Z,10.85
2022-09-22T22:41:03.369Z,10.00
2022-09-22T22:44:07.284Z,10.55
2022-09-22T22:47:09.901Z,11.52
2022-09-22T22:50:13.915Z,10.70
2022-09-22T22:53:16.735Z,8.98
2022-09-22T22:56:22.405Z,9.95
2022-09-22T22:59:24.941Z,10.90
2022-09-22T23:02:30.773Z,10.13
2022-09-22T23:05:37.410Z,10.27
2022-09-22T23:08:44.134Z,11.95
2022-09-22T23:11:47.540Z,10.70
2022-09-22T23:14:50.579Z,9.65
2022-09-22T23:17:53.131Z,9.80
2022-09-22T23:20:57.157Z,12.23
2022-09-22T23:24:00.948Z,10.95
2022-09-22T23:27:03.614Z,10.27
2022-09-22T23:30:07.019Z,10.77
2022-09-22T23:33:11.240Z,11.75
2022-09-22T23:36:17.964Z,11.03
2022-09-22T23:39:20.657Z,9.77
2022-09-22T23:42:24.243Z,12.13
2022-09-22T23:45:29.565Z,10.25
2022-09-22T23:48:32.964Z,10.60
2022-09-22T23:51:37.036Z,10.70
2022-09-22T23:54:39.612Z,11.52
2022-09-22T23:57:42.347Z,11.27
